createdAt,value
2023-04-01T00:04:38.997Z,8.55
2023-04-01T00:09:40.621Z,8.38
2023-04-01T00:14:42.477Z,8.22
2023-04-01T00:19:44.634Z,8.18
2023-04-01T00:24:46.117Z,8.23
2023-04-01T00:29:48.770Z,8.35
2023-04-01T00:34:54.014Z,8.48
2023-04-01T00:39:56.160Z,8.54
2023-04-01T00:44:58.161Z,8.43
2023-04-01T00:50:00.803Z,8.35
2023-04-01T00:55:05.494Z,8.37
2023-04-01T01:00:12.151Z,8.37
2023-04-01T01:05:17.206Z,8.35
2023-04-01T01:10:30.285Z,8.28
2023-04-01T01:15:47.737Z,8.17
2023-04-01T01:20:58.538Z,8.14
2023-04-01T01:26:13.907Z,8.17
2023-04-01T01:31:44.106Z,8.16
2023-04-01T01:36:49.865Z,8.13
2023-04-01T01:41:51.917Z,8.12
2023-04-01T01:46:53.480Z,8.09
2023-04-01T01:51:55.073Z,8.09
2023-04-01T01:57:18.342Z,8.12
2023-04-01T02:02:20.963Z,8.12
2023-04-01T02:07:29.262Z,8.08
2023-04-01T02:12:32.424Z,8.03
2023-04-01T02:17:36.856Z,8.00
2023-04-01T02:22:43.642Z,7.94
2023-04-01T02:27:46.527Z,7.89
2023-04-01T02:32:49.794Z,7.81
2023-04-01T02:37:53.709Z,7.72
2023-04-01T02:42:55.823Z,7.66
2023-04-01T02:47:57.380Z,7.60
2023-04-01T02:52:59.197Z,7.49
2023-04-01T02:58:01.283Z,7.34
2023-04-01T03:03:03.803Z,7.19
2023-04-01T03:08:06.625Z,7.02
2023-04-01T03:13:08.829Z,6.93
2023-04-01T03:18:10.315Z,6.93
2023-04-01T03:23:11.843Z,6.92
2023-04-01T03:28:14.760Z,6.85
2023-04-01T03:33:16.253Z,6.76
2023-04-01T03:38:17.778Z,6.71
2023-04-01T03:43:19.296Z,6.67
2023-04-01T03:48:21.535Z,6.63
2023-04-01T03:53:23.136Z,6.62
2023-04-01T03:58:24.922Z,6.70
2023-04-01T04:03:27.624Z,6.83
2023-04-01T04:08:29.528Z,7.00
2023-04-01T04:13:31.034Z,7.18
2023-04-01T04:18:32.630Z,7.31
2023-04-01T04:23:34.749Z,7.35
2023-04-01T04:28:36.276Z,7.38
2023-04-01T04:33:38.376Z,7.47
2023-04-01T04:38:39.950Z,7.53
2023-04-01T04:43:42.382Z,7.60
2023-04-01T04:48:44.870Z,7.68
2023-04-01T04:53:47.042Z,7.74
2023-04-01T04:58:49.854Z,7.77
2023-04-01T05:03:52.941Z,7.72
2023-04-01T05:08:54.433Z,7.72
2023-04-01T05:13:55.936Z,7.93
2023-04-01T05:18:57.729Z,8.21
2023-04-01T05:23:59.219Z,8.45
2023-04-01T05:29:00.784Z,8.59
2023-04-01T05:34:02.589Z,8.70
2023-04-01T05:39:04.686Z,8.80
2023-04-01T05:44:06.453Z,8.90
2023-04-01T05:49:07.956Z,9.02
2023-04-01T05:54:09.483Z,9.14
2023-04-01T05:59:12.200Z,9.42
2023-04-01T06:04:18.860Z,9.52
2023-04-01T06:09:28.075Z,9.50
2023-04-01T06:14:45.859Z,10.16
2023-04-01T06:20:21.649Z,11.58
2023-04-01T06:25:48.418Z,12.29
2023-04-01T06:31:28.025Z,11.93
2023-04-01T06:36:56.674Z,11.42
2023-04-01T06:42:20.240Z,11.12
2023-04-01T06:47:25.426Z,10.93
2023-04-01T06:52:43.483Z,10.93
2023-04-01T06:57:49.274Z,11.10
2023-04-01T07:03:11.779Z,11.44
2023-04-01T07:08:19.595Z,11.73
2023-04-01T07:13:35.247Z,11.76
2023-04-01T07:18:51.464Z,11.48
2023-04-01T07:23:57.621Z,11.21
2023-04-01T07:28:59.585Z,10.86
2023-04-01T07:34:06.970Z,10.75
2023-04-01T07:39:46.579Z,10.97
2023-04-01T07:45:18.578Z,11.56
2023-04-01T07:50:35.190Z,12.07
2023-04-01T07:55:57.445Z,12.22
2023-04-01T08:01:17.666Z,12.63
2023-04-01T08:06:33.445Z,13.32
2023-04-01T08:11:59.519Z,13.88
2023-04-01T08:17:11.927Z,14.06
2023-04-01T08:22:21.531Z,13.78
2023-04-01T08:27:29.936Z,13.59
2023-04-01T08:32:44.510Z,13.49
2023-04-01T08:37:48.567Z,13.39
2023-04-01T08:43:47.022Z,13.19
2023-04-01T08:49:03.801Z,13.59
2023-04-01T08:54:30.906Z,13.76
2023-04-01T08:59:41.785Z,13.45
2023-04-01T09:05:05.754Z,13.12
2023-04-01T09:10:13.408Z,13.25
2023-04-01T09:15:27.169Z,13.36
2023-04-01T09:20:45.551Z,13.22
2023-04-01T09:26:09.440Z,12.98
2023-04-01T09:31:59.312Z,12.78
2023-04-01T09:37:00.765Z,13.51
2023-04-01T09:42:02.234Z,14.50
2023-04-01T09:47:46.144Z,14.94
2023-04-01T09:52:56.778Z,14.76
2023-04-01T09:58:13.367Z,14.26
2023-04-01T10:03:50.693Z,14.05
2023-04-01T10:09:17.822Z,13.55
2023-04-01T10:14:35.995Z,13.32
2023-04-01T10:20:15.242Z,13.48
2023-04-01T10:25:25.771Z,13.30
2023-04-01T10:31:04.684Z,12.92
2023-04-01T10:36:31.397Z,13.24
2023-04-01T10:41:35.780Z,13.97
2023-04-01T10:46:59.308Z,14.69
2023-04-01T10:52:36.485Z,14.78
2023-04-01T10:58:19.672Z,14.66
2023-04-01T11:03:59.120Z,14.47
2023-04-01T11:09:22.494Z,15.60
2023-04-01T11:14:59.996Z,16.97
2023-04-01T11:20:50.071Z,16.65
2023-04-01T11:26:07.407Z,16.16
2023-04-01T11:31:36.659Z,15.49
2023-04-01T11:36:53.521Z,14.45
2023-04-01T11:42:27.302Z,13.87
2023-04-01T11:48:00.922Z,13.65
2023-04-01T11:53:14.756Z,13.17
2023-04-01T11:58:38.166Z,12.49
2023-04-01T12:04:05.068Z,11.84
2023-04-01T12:09:09.868Z,11.58
2023-04-01T12:14:33.175Z,11.35
2023-04-01T12:20:02.917Z,11.06
2023-04-01T12:25:16.364Z,10.97
2023-04-01T12:30:23.976Z,11.22
2023-04-01T12:35:30.855Z,11.74
2023-04-01T12:40:51.260Z,12.43
2023-04-01T12:46:17.703Z,13.38
2023-04-01T12:51:22.424Z,13.80
2023-04-01T12:56:54.334Z,13.66
2023-04-01T13:01:58.875Z,13.25
2023-04-01T13:07:19.229Z,12.95
2023-04-01T13:12:49.026Z,13.00
2023-04-01T13:18:26.255Z,12.89
2023-04-01T13:23:56.004Z,12.69
2023-04-01T13:29:10.682Z,12.63
2023-04-01T13:35:00.747Z,12.52
2023-04-01T13:40:14.374Z,12.62
2023-04-01T13:45:55.650Z,12.97
2023-04-01T13:51:21.615Z,13.50
2023-04-01T13:57:01.045Z,13.76
2023-04-01T14:02:30.925Z,14.12
2023-04-01T14:08:11.521Z,14.53
2023-04-01T14:13:42.802Z,14.89
2023-04-01T14:19:09.983Z,15.54
2023-04-01T14:24:29.976Z,16.52
2023-04-01T14:29:43.650Z,17.10
2023-04-01T14:35:16.397Z,19.26
2023-04-01T14:40:24.298Z,21.84
2023-04-01T14:45:34.908Z,21.81
2023-04-01T14:50:51.901Z,19.77
2023-04-01T14:56:00.202Z,18.30
2023-04-01T15:01:07.549Z,17.11
2023-04-01T15:06:37.482Z,15.79
2023-04-01T15:11:42.054Z,14.50
2023-04-01T15:16:56.391Z,13.41
2023-04-01T15:22:26.105Z,12.41
2023-04-01T15:28:05.360Z,11.64
2023-04-01T15:33:23.682Z,11.15
2023-04-01T15:38:43.480Z,10.82
2023-04-01T15:43:49.728Z,10.59
2023-04-01T15:49:03.962Z,10.37
2023-04-01T15:54:35.465Z,10.25
2023-04-01T16:00:03.264Z,10.13
2023-04-01T16:05:31.138Z,10.10
2023-04-01T16:11:27.393Z,9.94
2023-04-01T16:16:35.018Z,9.83
2023-04-01T16:21:47.124Z,9.80
2023-04-01T16:26:55.948Z,9.70
2023-04-01T16:32:33.090Z,9.53
2023-04-01T16:37:45.847Z,9.31
2023-04-01T16:43:11.655Z,9.14
2023-04-01T16:48:17.253Z,8.92
2023-04-01T16:53:26.503Z,8.79
2023-04-01T16:58:42.743Z,8.75
2023-04-01T17:03:54.021Z,8.77
2023-04-01T17:09:13.737Z,8.76
2023-04-01T17:14:31.521Z,8.73
2023-04-01T17:19:43.907Z,8.70
2023-04-01T17:25:05.719Z,8.65
2023-04-01T17:30:38.227Z,8.63
2023-04-01T17:36:00.104Z,8.60
2023-04-01T17:41:20.966Z,8.56
2023-04-01T17:46:42.890Z,8.56
2023-04-01T17:52:01.177Z,8.50
2023-04-01T17:57:30.920Z,8.44
2023-04-01T18:02:54.884Z,8.45
2023-04-01T18:08:17.056Z,8.47
2023-04-01T18:13:47.278Z,8.54
2023-04-01T18:19:02.730Z,8.55
2023-04-01T18:24:19.737Z,8.47
2023-04-01T18:29:34.102Z,8.45
2023-04-01T18:34:58.885Z,8.50
2023-04-01T18:40:27.894Z,8.45
2023-04-01T18:45:41.993Z,8.37
2023-04-01T18:50:58.916Z,8.29
2023-04-01T18:56:04.090Z,8.23
2023-04-01T19:01:14.224Z,8.16
2023-04-01T19:06:39.555Z,8.08
2023-04-01T19:11:50.974Z,8.04
2023-04-01T19:17:01.815Z,8.03
2023-04-01T19:22:26.743Z,8.05
2023-04-01T19:27:32.885Z,8.09
2023-04-01T19:32:43.599Z,8.18
2023-04-01T19:38:10.329Z,8.23
2023-04-01T19:43:17.006Z,8.29
2023-04-01T19:48:46.835Z,8.34
2023-04-01T19:53:55.391Z,8.31
2023-04-01T19:59:09.410Z,8.33
2023-04-01T20:04:36.121Z,8.27
2023-04-01T20:10:06.654Z,8.21
2023-04-01T20:15:56.195Z,8.14
2023-04-01T20:21:20.872Z,8.07
2023-04-01T20:26:29.445Z,8.04
2023-04-01T20:31:31.227Z,8.00
2023-04-01T20:36:55.835Z,7.97
2023-04-01T20:42:13.150Z,7.95
2023-04-01T20:47:54.162Z,7.94
2023-04-01T20:53:21.702Z,7.93
2023-04-01T20:58:27.631Z,7.87
2023-04-01T21:03:42.580Z,7.89
2023-04-01T21:08:53.275Z,7.95
2023-04-01T21:13:54.736Z,7.97
2023-04-01T21:19:02.848Z,7.92
2023-04-01T21:24:10.835Z,7.85
2023-04-01T21:29:46.060Z,7.80
2023-04-01T21:34:56.102Z,7.78
2023-04-01T21:40:32.489Z,7.75
2023-04-01T21:45:58.403Z,7.79
2023-04-01T21:51:15.661Z,7.75
2023-04-01T21:56:19.880Z,7.66
2023-04-01T22:01:40.944Z,7.62
2023-04-01T22:06:56.400Z,7.56
2023-04-01T22:12:25.202Z,7.54
2023-04-01T22:17:34.001Z,7.49
2023-04-01T22:22:54.177Z,7.48
2023-04-01T22:28:01.509Z,7.48
2023-04-01T22:33:16.170Z,7.45
2023-04-01T22:38:36.577Z,7.41
2023-04-01T22:43:44.288Z,7.39
2023-04-01T22:49:17.669Z,7.38
2023-04-01T22:54:45.647Z,7.37
2023-04-01T23:00:02.096Z,7.36
2023-04-01T23:05:09.944Z,7.37
2023-04-01T23:10:19.248Z,7.38
2023-04-01T23:15:22.339Z,7.38
2023-04-01T23:20:53.033Z,7.32
2023-04-01T23:26:07.641Z,7.33
2023-04-01T23:31:30.540Z,7.33
2023-04-01T23:36:39.683Z,7.31
2023-04-01T23:41:41.743Z,7.22
2023-04-01T23:46:46.921Z,7.16
2023-04-01T23:52:03.721Z,7.03
2023-04-01T23:57:13.240Z,6.96
